Time;durP1;ratioP1;P1;durP2;ratioP2;P2;SDS_P1;SDS_P2;PMS_P1;PMS_P2;Temp;Humidity;BMP_temperature;BMP_pressure;BME280_temperature;BME280_humidity;BME280_pressure;Samples;Min_cycle;Max_cycle;Signal;HPM_P1;HPM_P2
2021/01/19 00:00:38;;;;;;;9.23;3.63;;;4.70;99.90;;;;;;5031752;28;20174;-70
2021/01/19 00:03:03;;;;;;;7.38;3.95;;;4.70;99.90;;;;;;5031147;28;20022;-70
2021/01/19 00:05:29;;;;;;;10.60;3.45;;;4.70;99.90;;;;;;5031394;28;20148;-69
2021/01/19 00:07:55;;;;;;;5.55;3.67;;;4.70;99.90;;;;;;5032183;28;20447;-70
2021/01/19 00:10:20;;;;;;;6.85;3.50;;;4.80;99.90;;;;;;5032565;28;20025;-70
2021/01/19 00:12:46;;;;;;;14.13;4.65;;;4.70;99.90;;;;;;5030804;28;20481;-70
2021/01/19 00:15:12;;;;;;;9.57;3.65;;;4.80;99.90;;;;;;5031363;28;20025;-70
2021/01/19 00:17:38;;;;;;;9.07;3.55;;;4.80;99.90;;;;;;5031618;28;20090;-70
2021/01/19 00:20:05;;;;;;;10.45;3.78;;;4.80;99.90;;;;;;5031330;28;20030;-69
2021/01/19 00:22:32;;;;;;;8.90;4.88;;;4.80;99.90;;;;;;5032513;28;20040;-70
2021/01/19 00:24:59;;;;;;;6.07;3.05;;;4.80;99.90;;;;;;5030533;28;20044;-69
2021/01/19 00:27:24;;;;;;;11.88;4.63;;;4.70;99.90;;;;;;5032374;28;20029;-69
2021/01/19 00:29:50;;;;;;;6.45;3.75;;;4.70;99.90;;;;;;5030394;28;20095;-70
2021/01/19 00:32:15;;;;;;;10.20;3.75;;;4.60;99.90;;;;;;5031221;28;20265;-69
2021/01/19 00:34:41;;;;;;;9.90;4.03;;;4.70;99.90;;;;;;5031931;28;20480;-69
2021/01/19 00:37:07;;;;;;;11.13;4.20;;;4.70;99.90;;;;;;5030253;28;20057;-69
2021/01/19 00:39:32;;;;;;;7.90;3.03;;;4.80;99.90;;;;;;5030755;28;20025;-69
2021/01/19 00:41:58;;;;;;;13.52;3.55;;;4.70;99.90;;;;;;5030087;28;20036;-70
2021/01/19 00:44:23;;;;;;;18.98;4.22;;;4.80;99.90;;;;;;5030778;28;20069;-69
2021/01/19 00:46:51;;;;;;;8.77;3.03;;;4.70;99.90;;;;;;5031270;28;20122;-70
2021/01/19 00:49:17;;;;;;;7.85;3.85;;;4.60;99.90;;;;;;5030474;28;20022;-69
2021/01/19 00:51:43;;;;;;;9.00;4.35;;;4.80;99.90;;;;;;5031168;28;20026;-70
2021/01/19 00:54:08;;;;;;;9.48;3.72;;;4.70;99.90;;;;;;5031753;28;20427;-70
2021/01/19 00:56:39;;;;;;;7.28;4.38;;;4.60;99.90;;;;;;5030337;28;20029;-69
2021/01/19 00:59:05;;;;;;;15.20;4.35;;;4.60;99.90;;;;;;5030421;28;20041;-70
2021/01/19 01:01:31;;;;;;;7.82;3.60;;;4.50;99.90;;;;;;5032035;28;20080;-70
2021/01/19 01:03:57;;;;;;;7.85;3.38;;;4.40;99.90;;;;;;5031115;28;20080;-70
2021/01/19 01:06:23;;;;;;;8.85;4.75;;;4.30;99.90;;;;;;5031945;28;20041;-69
2021/01/19 01:08:48;;;;;;;8.57;3.75;;;4.30;99.90;;;;;;5030003;28;20036;-69
2021/01/19 01:11:14;;;;;;;6.20;3.58;;;4.30;99.90;;;;;;5030138;28;20056;-69
2021/01/19 01:13:40;;;;;;;11.43;4.97;;;4.10;99.90;;;;;;5031626;28;20033;-70
2021/01/19 01:16:09;;;;;;;11.90;3.40;;;4.20;99.90;;;;;;5031781;28;20531;-70
2021/01/19 01:18:35;;;;;;;10.00;3.38;;;4.10;99.90;;;;;;5031384;28;20036;-69
2021/01/19 01:21:00;;;;;;;8.30;4.13;;;4.20;99.90;;;;;;5030725;28;20458;-69
2021/01/19 01:23:26;;;;;;;7.43;4.63;;;4.20;99.90;;;;;;5031684;28;20242;-69
2021/01/19 01:25:51;;;;;;;5.60;3.17;;;4.10;99.90;;;;;;5029366;28;20199;-69
2021/01/19 01:28:17;;;;;;;7.65;4.22;;;4.20;99.90;;;;;;5030946;28;20048;-68
2021/01/19 01:30:43;;;;;;;11.32;3.75;;;4.20;99.90;;;;;;5030322;28;20026;-69
2021/01/19 01:33:08;;;;;;;6.72;4.10;;;4.10;99.90;;;;;;5029961;28;20022;-69
2021/01/19 01:35:34;;;;;;;8.05;3.65;;;4.10;99.90;;;;;;5031231;28;20447;-69
2021/01/19 01:37:59;;;;;;;6.15;3.58;;;4.00;99.90;;;;;;5030694;28;20072;-69
2021/01/19 01:40:27;;;;;;;6.05;3.45;;;4.00;99.90;;;;;;5029867;28;20025;-70
2021/01/19 01:42:57;;;;;;;19.70;4.53;;;4.00;99.90;;;;;;5029311;28;20025;-70
2021/01/19 01:45:25;;;;;;;8.85;4.22;;;4.00;99.90;;;;;;5030757;28;20029;-70
2021/01/19 01:47:54;;;;;;;8.65;4.13;;;4.00;99.90;;;;;;5030151;28;20064;-70
2021/01/19 01:50:21;;;;;;;8.98;3.75;;;4.00;99.90;;;;;;5030747;28;20066;-70
2021/01/19 01:52:47;;;;;;;10.27;4.22;;;4.00;99.90;;;;;;5030401;28;20025;-70
2021/01/19 01:55:15;;;;;;;8.98;3.70;;;4.00;99.90;;;;;;5029790;28;20033;-69
2021/01/19 01:57:41;;;;;;;6.53;3.50;;;3.90;99.90;;;;;;5031052;28;20091;-69
2021/01/19 02:00:09;;;;;;;7.90;4.10;;;3.90;99.90;;;;;;5030383;28;20064;-70
2021/01/19 02:02:35;;;;;;;8.13;3.90;;;3.90;99.90;;;;;;5029517;28;20489;-69
2021/01/19 02:05:03;;;;;;;9.80;3.72;;;3.80;99.90;;;;;;5029729;28;20037;-69
2021/01/19 02:07:51;;;;;;;9.38;3.92;;;3.80;99.90;;;;;;5029372;28;20476;-70
2021/01/19 02:10:50;;;;;;;8.77;3.40;;;3.90;99.90;;;;;;5030900;28;20068;-70
2021/01/19 02:13:38;;;;;;;6.28;2.80;;;4.00;99.90;;;;;;5030845;28;20503;-69
2021/01/19 02:16:22;;;;;;;4.65;3.13;;;4.00;99.90;;;;;;5030070;28;20425;-69
2021/01/19 02:19:13;;;;;;;6.90;2.90;;;4.00;99.90;;;;;;5028773;28;20032;-69
2021/01/19 02:22:06;;;;;;;7.30;3.00;;;4.00;99.90;;;;;;5029740;28;20037;-70
2021/01/19 02:25:10;;;;;;;7.63;2.92;;;4.00;99.90;;;;;;5030615;28;20026;-69
2021/01/19 02:27:50;;;;;;;7.55;3.13;;;4.00;99.90;;;;;;5029015;28;20033;-70
2021/01/19 02:30:37;;;;;;;11.60;4.10;;;4.10;99.90;;;;;;5030437;28;20032;-70
2021/01/19 02:33:40;;;;;;;6.15;2.83;;;4.00;99.90;;;;;;5029756;28;20034;-70
2021/01/19 02:36:30;;;;;;;10.65;3.45;;;4.00;99.90;;;;;;5028517;28;20030;-70
2021/01/19 02:39:03;;;;;;;6.82;3.38;;;4.10;99.90;;;;;;5029719;28;20038;-70
2021/01/19 02:41:30;;;;;;;5.50;2.65;;;4.00;99.90;;;;;;5030661;28;20021;-69
2021/01/19 02:44:06;;;;;;;8.98;3.25;;;4.00;99.90;;;;;;5028256;28;20471;-69
2021/01/19 02:46:33;;;;;;;7.97;3.78;;;4.00;99.90;;;;;;5030502;28;20088;-69
2021/01/19 02:48:58;;;;;;;9.75;2.58;;;4.00;99.90;;;;;;5029526;28;20040;-70
2021/01/19 02:51:24;;;;;;;6.85;2.40;;;4.00;99.90;;;;;;5028870;28;20021;-69
2021/01/19 02:53:53;;;;;;;9.65;3.42;;;4.10;99.90;;;;;;5029945;28;20040;-70
2021/01/19 02:56:46;;;;;;;4.47;2.30;;;4.00;99.90;;;;;;5028987;28;20029;-70
2021/01/19 02:59:24;;;;;;;6.32;2.88;;;4.00;99.90;;;;;;5030654;28;20415;-69
2021/01/19 03:02:01;;;;;;;6.70;3.20;;;4.00;99.90;;;;;;5029525;28;20083;-69
2021/01/19 03:04:30;;;;;;;6.38;3.00;;;4.00;99.90;;;;;;5028819;28;20029;-70
2021/01/19 03:07:01;;;;;;;14.82;3.42;;;4.00;99.90;;;;;;5028157;28;20038;-70
2021/01/19 03:09:27;;;;;;;10.45;3.92;;;4.10;99.90;;;;;;5030392;28;20104;-69
2021/01/19 03:11:55;;;;;;;5.45;2.78;;;4.10;99.90;;;;;;5028364;28;20391;-69
2021/01/19 03:14:22;;;;;;;5.53;2.38;;;4.00;99.90;;;;;;5030211;28;20025;-70
2021/01/19 03:16:48;;;;;;;4.28;2.65;;;4.00;99.90;;;;;;5028070;28;20324;-69
2021/01/19 03:19:16;;;;;;;5.20;2.60;;;4.00;99.90;;;;;;5028422;28;20017;-70
2021/01/19 03:21:42;;;;;;;7.60;3.25;;;3.90;99.90;;;;;;5030010;28;20025;-70
2021/01/19 03:24:08;;;;;;;4.40;2.22;;;3.90;99.90;;;;;;5029117;28;20037;-70
2021/01/19 03:26:33;;;;;;;5.20;2.65;;;3.80;99.90;;;;;;5028884;28;20030;-69
2021/01/19 03:28:59;;;;;;;7.93;3.17;;;3.80;99.90;;;;;;5029444;28;20032;-70
2021/01/19 03:31:25;;;;;;;11.15;4.50;;;3.80;99.90;;;;;;5030083;28;20072;-70
2021/01/19 03:33:50;;;;;;;5.57;2.65;;;3.80;99.90;;;;;;5029426;28;20036;-69
2021/01/19 03:36:16;;;;;;;6.82;3.45;;;3.80;99.90;;;;;;5032241;28;20060;-69
2021/01/19 03:38:41;;;;;;;6.45;2.83;;;3.90;99.90;;;;;;5031935;28;20085;-69
2021/01/19 03:41:07;;;;;;;5.43;2.78;;;3.90;99.90;;;;;;5031575;28;20387;-71
2021/01/19 03:43:33;;;;;;;6.38;3.08;;;3.90;99.90;;;;;;5033469;28;20029;-69
2021/01/19 03:45:58;;;;;;;7.97;3.10;;;3.70;99.90;;;;;;5032852;28;20033;-70
2021/01/19 03:48:24;;;;;;;4.32;2.80;;;3.80;99.90;;;;;;5033680;28;20025;-69
2021/01/19 03:50:49;;;;;;;8.82;3.50;;;3.80;99.90;;;;;;5032960;28;20471;-69
2021/01/19 03:53:15;;;;;;;9.93;3.58;;;3.80;99.90;;;;;;5033246;28;20053;-69
2021/01/19 03:55:41;;;;;;;7.53;4.35;;;3.90;99.90;;;;;;5033686;28;20490;-69
2021/01/19 03:58:06;;;;;;;6.80;4.22;;;3.90;99.90;;;;;;5031378;28;20503;-70
2021/01/19 04:00:32;;;;;;;5.93;3.80;;;3.80;99.90;;;;;;5033233;28;20028;-70
2021/01/19 04:02:58;;;;;;;8.88;4.10;;;3.70;99.90;;;;;;5030974;28;20025;-70
2021/01/19 04:05:23;;;;;;;6.95;3.75;;;3.70;99.90;;;;;;5031441;28;20041;-69
2021/01/19 04:07:51;;;;;;;13.68;4.15;;;3.70;99.90;;;;;;5032677;28;20029;-69
2021/01/19 04:10:17;;;;;;;7.72;4.40;;;3.60;99.90;;;;;;5033061;28;20507;-70
2021/01/19 04:12:43;;;;;;;7.20;3.83;;;3.70;99.90;;;;;;5032676;28;20029;-70
2021/01/19 04:15:09;;;;;;;9.05;4.93;;;3.70;99.90;;;;;;5032280;28;20025;-69
2021/01/19 04:17:37;;;;;;;9.48;4.72;;;3.70;99.90;;;;;;5031504;28;20032;-70
2021/01/19 04:20:03;;;;;;;7.93;4.03;;;3.80;99.90;;;;;;5031962;28;20095;-70
2021/01/19 04:22:29;;;;;;;8.55;3.78;;;3.70;99.90;;;;;;5031488;28;20056;-70
2021/01/19 04:24:55;;;;;;;8.68;3.78;;;3.70;99.90;;;;;;5031993;28;20029;-70
2021/01/19 04:27:21;;;;;;;9.05;4.43;;;3.80;99.90;;;;;;5032740;28;20156;-69
2021/01/19 04:29:47;;;;;;;6.75;4.03;;;3.80;99.90;;;;;;5031218;28;20032;-70
2021/01/19 04:32:13;;;;;;;6.03;3.58;;;3.80;99.90;;;;;;5030448;28;20029;-70
2021/01/19 04:34:39;;;;;;;5.93;3.50;;;3.80;99.90;;;;;;5030853;28;20038;-68
2021/01/19 04:37:04;;;;;;;10.88;4.25;;;3.80;99.90;;;;;;5031710;28;20050;-69
2021/01/19 04:39:30;;;;;;;8.77;4.30;;;3.80;99.90;;;;;;5030979;28;20082;-70
2021/01/19 04:41:56;;;;;;;8.27;4.28;;;3.70;99.90;;;;;;5030440;28;20394;-70
2021/01/19 04:44:24;;;;;;;8.13;4.35;;;3.70;99.90;;;;;;5031963;28;20430;-70
2021/01/19 04:46:50;;;;;;;8.15;3.95;;;3.80;99.90;;;;;;5031647;28;20029;-70
2021/01/19 04:49:17;;;;;;;9.63;3.60;;;3.70;99.90;;;;;;5029594;28;20041;-67
2021/01/19 04:51:46;;;;;;;9.32;3.40;;;3.70;99.90;;;;;;5030499;28;20383;-69
2021/01/19 04:54:17;;;;;;;5.18;3.80;;;3.80;99.90;;;;;;5030770;28;20041;-65
2021/01/19 04:56:53;;;;;;;7.50;4.18;;;3.70;99.90;;;;;;5030225;28;20025;-68
2021/01/19 04:59:22;;;;;;;37.92;8.85;;;3.60;99.90;;;;;;5030444;28;20029;-59
2021/01/19 05:01:54;;;;;;;8.48;4.75;;;4.80;99.90;;;;;;5031816;28;20044;-66
2021/01/19 05:04:52;;;;;;;7.38;3.65;;;5.40;99.90;;;;;;5030736;28;20036;-67
2021/01/19 05:07:33;;;;;;;9.35;4.32;;;4.30;99.90;;;;;;5029692;28;20826;-67
2021/01/19 05:10:12;;;;;;;8.50;4.72;;;4.00;99.90;;;;;;5030778;28;20108;-69
2021/01/19 05:12:43;;;;;;;13.50;4.50;;;3.80;99.90;;;;;;5030323;28;20075;-70
2021/01/19 05:15:10;;;;;;;4.93;3.38;;;3.80;99.90;;;;;;5030788;28;20077;-68
2021/01/19 05:17:37;;;;;;;10.20;3.33;;;3.80;99.90;;;;;;5029878;28;20056;-69
2021/01/19 05:20:04;;;;;;;14.60;4.75;;;3.70;99.90;;;;;;5030384;28;20069;-70
2021/01/19 05:22:30;;;;;;;7.78;3.97;;;3.70;99.90;;;;;;5030945;28;20060;-69
2021/01/19 05:24:56;;;;;;;10.18;4.22;;;3.70;99.90;;;;;;5031033;28;20411;-67
2021/01/19 05:27:21;;;;;;;11.18;3.45;;;3.80;99.90;;;;;;5029329;28;20034;-66
2021/01/19 05:29:47;;;;;;;10.38;3.95;;;3.80;99.90;;;;;;5030860;28;20045;-69
2021/01/19 05:32:14;;;;;;;13.35;4.60;;;3.80;99.90;;;;;;5030279;28;20025;-70
2021/01/19 05:34:40;;;;;;;5.03;3.20;;;3.70;99.90;;;;;;5029674;28;20124;-70
2021/01/19 05:37:06;;;;;;;7.50;3.22;;;3.70;99.90;;;;;;5027860;28;20288;-69
2021/01/19 05:39:31;;;;;;;11.57;4.05;;;3.60;99.90;;;;;;5028473;28;20029;-70
2021/01/19 05:41:57;;;;;;;7.72;3.15;;;3.60;99.90;;;;;;5030680;28;20474;-69
2021/01/19 05:44:33;;;;;;;7.75;3.28;;;3.60;99.90;;;;;;5030440;28;20122;-69
2021/01/19 05:46:59;;;;;;;5.22;2.83;;;3.60;99.90;;;;;;5030161;28;20097;-68
2021/01/19 05:49:27;;;;;;;6.78;3.38;;;3.70;99.90;;;;;;5031321;28;20136;-70
2021/01/19 05:52:03;;;;;;;7.38;3.78;;;3.60;99.90;;;;;;5029743;28;20061;-71
2021/01/19 05:54:34;;;;;;;8.27;3.40;;;3.60;99.90;;;;;;5031187;28;20045;-71
2021/01/19 05:57:10;;;;;;;9.80;2.97;;;3.60;99.90;;;;;;5028679;28;20111;-70
2021/01/19 05:59:46;;;;;;;5.72;3.05;;;3.60;99.90;;;;;;5029731;28;20435;-71
2021/01/19 06:02:16;;;;;;;6.78;3.50;;;3.60;99.90;;;;;;5030403;28;20044;-70
2021/01/19 06:04:47;;;;;;;6.55;3.22;;;3.60;99.90;;;;;;5030344;28;20494;-70
2021/01/19 06:07:15;;;;;;;11.40;4.18;;;3.60;99.90;;;;;;5028642;28;20098;-71
2021/01/19 06:09:44;;;;;;;6.13;3.25;;;3.50;99.90;;;;;;5029038;28;20390;-71
2021/01/19 06:12:10;;;;;;;8.57;3.45;;;3.60;99.90;;;;;;5028752;28;20032;-69
2021/01/19 06:14:37;;;;;;;7.03;4.10;;;3.60;99.90;;;;;;5029323;28;20025;-71
2021/01/19 06:17:16;;;;;;;5.22;3.47;;;3.50;99.90;;;;;;5028403;28;20131;-69
2021/01/19 06:19:43;;;;;;;13.80;4.68;;;3.60;99.90;;;;;;5029576;28;20026;-70
2021/01/19 06:22:13;;;;;;;5.45;3.20;;;3.70;99.90;;;;;;5030911;28;20100;-71
2021/01/19 06:24:41;;;;;;;10.65;4.35;;;3.70;99.90;;;;;;5030387;28;20029;-69
2021/01/19 06:27:09;;;;;;;6.90;3.75;;;3.60;99.90;;;;;;5028321;28;20140;-69
2021/01/19 06:29:35;;;;;;;11.48;4.05;;;3.70;99.90;;;;;;5029201;28;20120;-70
2021/01/19 06:32:03;;;;;;;6.57;3.78;;;3.60;99.90;;;;;;5030033;28;20068;-69
2021/01/19 06:34:38;;;;;;;5.35;3.65;;;3.50;99.90;;;;;;5029134;28;20043;-71
2021/01/19 06:37:06;;;;;;;8.90;4.00;;;3.70;99.90;;;;;;5029074;28;20054;-70
2021/01/19 06:39:33;;;;;;;5.40;2.83;;;3.70;99.90;;;;;;5029315;28;20048;-71
2021/01/19 06:42:08;;;;;;;9.73;2.88;;;3.70;99.90;;;;;;5028710;28;20041;-70
2021/01/19 06:44:45;;;;;;;8.52;4.07;;;3.80;99.90;;;;;;5028775;28;20038;-70
2021/01/19 06:47:12;;;;;;;6.13;3.10;;;3.60;99.90;;;;;;5028242;28;20096;-71
2021/01/19 06:49:39;;;;;;;6.43;3.70;;;3.60;99.90;;;;;;5028847;28;20456;-70
2021/01/19 06:52:13;;;;;;;11.30;3.67;;;3.70;99.90;;;;;;5029618;28;20022;-69
2021/01/19 06:54:55;;;;;;;7.60;3.25;;;3.60;99.90;;;;;;5028693;28;20128;-70
2021/01/19 06:57:44;;;;;;;8.33;3.20;;;3.70;99.90;;;;;;5027991;28;20799;-71
2021/01/19 07:00:20;;;;;;;7.90;2.80;;;3.70;99.90;;;;;;5029443;28;20025;-71
2021/01/19 07:02:47;;;;;;;6.50;3.03;;;3.60;99.90;;;;;;5029879;28;20374;-71
2021/01/19 07:05:15;;;;;;;8.93;3.53;;;3.70;99.90;;;;;;5028898;28;20045;-70
2021/01/19 07:07:43;;;;;;;6.60;3.83;;;3.70;99.90;;;;;;5028699;28;20064;-70
2021/01/19 07:10:13;;;;;;;9.20;3.35;;;3.70;99.90;;;;;;5033665;28;20087;-71
2021/01/19 07:12:55;;;;;;;8.68;3.78;;;3.80;99.90;;;;;;5032294;28;20064;-70
2021/01/19 07:15:26;;;;;;;6.40;2.90;;;3.60;99.90;;;;;;5031799;28;20248;-69
2021/01/19 07:18:16;;;;;;;10.15;3.63;;;3.60;99.90;;;;;;5032300;28;20102;-70
2021/01/19 07:21:06;;;;;;;8.77;3.95;;;3.70;99.90;;;;;;5033725;28;20030;-70
2021/01/19 07:23:47;;;;;;;6.55;2.95;;;3.50;99.90;;;;;;5033320;28;20434;-71
2021/01/19 07:26:15;;;;;;;7.90;3.20;;;3.60;99.90;;;;;;5031714;28;20461;-71
2021/01/19 07:28:41;;;;;;;7.50;3.63;;;3.60;99.90;;;;;;5032033;28;20026;-70
2021/01/19 07:31:07;;;;;;;5.97;3.35;;;3.50;99.90;;;;;;5032482;28;20045;-69
2021/01/19 07:33:35;;;;;;;6.93;3.15;;;3.50;99.90;;;;;;5033373;28;20120;-70
2021/01/19 07:36:01;;;;;;;7.55;3.80;;;3.50;99.90;;;;;;5032123;28;20041;-69
2021/01/19 07:38:26;;;;;;;11.80;4.25;;;3.40;99.90;;;;;;5032470;28;20124;-70
2021/01/19 07:40:52;;;;;;;7.05;3.17;;;3.40;99.90;;;;;;5033640;28;20144;-69
2021/01/19 07:43:21;;;;;;;7.78;3.53;;;3.50;99.90;;;;;;5032591;28;20025;-68
2021/01/19 07:45:53;;;;;;;8.43;3.78;;;3.50;99.90;;;;;;5031773;28;20036;-69
2021/01/19 07:48:32;;;;;;;8.93;3.85;;;3.40;99.90;;;;;;5032413;28;20487;-69
2021/01/19 07:51:14;;;;;;;8.93;4.30;;;3.50;99.90;;;;;;5031809;28;20052;-71
2021/01/19 07:53:54;;;;;;;7.05;3.90;;;3.40;99.90;;;;;;5031844;28;20356;-70
2021/01/19 07:56:22;;;;;;;6.57;3.13;;;3.40;99.90;;;;;;5031215;28;20026;-70
2021/01/19 07:58:48;;;;;;;11.82;5.20;;;3.40;99.90;;;;;;5032958;28;20029;-69
2021/01/19 08:01:34;;;;;;;6.20;3.45;;;3.40;99.90;;;;;;5031896;28;20079;-68
2021/01/19 08:04:14;;;;;;;8.52;4.53;;;3.40;99.90;;;;;;5031104;28;20034;-70
2021/01/19 08:06:42;;;;;;;8.38;3.05;;;3.30;99.90;;;;;;5032535;28;20036;-69
2021/01/19 08:09:16;;;;;;;7.93;3.33;;;3.40;99.90;;;;;;5032242;28;20155;-70
2021/01/19 08:11:44;;;;;;;8.68;3.65;;;3.40;99.90;;;;;;5031416;28;20464;-70
2021/01/19 08:14:10;;;;;;;6.15;3.28;;;3.40;99.90;;;;;;5030754;28;20117;-69
2021/01/19 08:16:37;;;;;;;8.48;3.22;;;3.40;99.90;;;;;;5032915;28;20456;-69
2021/01/19 08:19:12;;;;;;;5.78;3.35;;;3.30;99.90;;;;;;5031206;28;20029;-70
2021/01/19 08:21:50;;;;;;;13.52;3.55;;;3.20;99.90;;;;;;5030740;28;20049;-68
2021/01/19 08:24:20;;;;;;;5.10;3.15;;;3.20;99.90;;;;;;5030660;28;20128;-70
2021/01/19 08:26:46;;;;;;;10.57;4.03;;;3.40;99.90;;;;;;5032867;28;20037;-68
2021/01/19 08:29:11;;;;;;;6.63;3.30;;;3.30;99.90;;;;;;5030735;28;20025;-70
2021/01/19 08:31:37;;;;;;;6.55;3.00;;;3.20;99.90;;;;;;5032408;28;20375;-70
2021/01/19 08:34:06;;;;;;;14.35;3.47;;;3.10;99.90;;;;;;5031080;28;20463;-69
2021/01/19 08:36:35;;;;;;;8.35;3.47;;;3.20;99.90;;;;;;5030836;28;20033;-69
2021/01/19 08:39:04;;;;;;;8.13;4.13;;;3.10;99.90;;;;;;5032225;28;20064;-69
2021/01/19 08:41:30;;;;;;;6.25;3.33;;;3.10;99.90;;;;;;5030392;28;20036;-70
2021/01/19 08:44:01;;;;;;;6.65;3.28;;;3.20;99.90;;;;;;5031988;28;20049;-70
2021/01/19 08:46:29;;;;;;;10.85;3.80;;;3.10;99.90;;;;;;5030195;28;20221;-70
2021/01/19 08:49:00;;;;;;;7.97;3.20;;;3.10;99.90;;;;;;5032223;28;20507;-70
2021/01/19 08:51:26;;;;;;;9.40;4.10;;;3.10;99.90;;;;;;5031808;28;20343;-70
2021/01/19 08:53:53;;;;;;;8.32;3.53;;;3.10;99.90;;;;;;5030989;28;20037;-70
2021/01/19 08:56:20;;;;;;;13.30;4.30;;;2.90;99.90;;;;;;5031653;28;20301;-72
2021/01/19 08:58:47;;;;;;;8.68;3.85;;;2.90;99.90;;;;;;5030595;28;20532;-72
2021/01/19 09:01:13;;;;;;;8.23;3.53;;;2.80;99.90;;;;;;5029025;28;20041;-69
2021/01/19 09:03:39;;;;;;;12.95;5.18;;;2.70;99.90;;;;;;5029462;28;20120;-71
2021/01/19 09:06:07;;;;;;;9.60;3.65;;;2.60;99.90;;;;;;5031878;28;20527;-66
2021/01/19 09:08:33;;;;;;;12.98;4.90;;;2.60;99.90;;;;;;5029548;28;20087;-67
2021/01/19 09:11:04;;;;;;;6.53;3.20;;;2.60;99.90;;;;;;5029726;28;20021;-67
2021/01/19 09:13:31;;;;;;;10.63;4.25;;;2.60;99.90;;;;;;5030604;28;20490;-66
2021/01/19 09:15:57;;;;;;;7.88;3.75;;;2.50;99.90;;;;;;5028439;28;20035;-66
2021/01/19 09:18:24;;;;;;;7.35;3.90;;;2.50;99.90;;;;;;5030620;28;20029;-67
2021/01/19 09:21:10;;;;;;;15.13;4.72;;;2.60;99.90;;;;;;5028554;28;20144;-67
2021/01/19 09:23:37;;;;;;;9.75;4.50;;;2.60;99.90;;;;;;5029204;28;20420;-66
2021/01/19 09:26:07;;;;;;;7.55;4.40;;;2.60;99.90;;;;;;5030414;28;20030;-68
2021/01/19 09:28:37;;;;;;;9.80;4.25;;;2.60;99.90;;;;;;5029684;28;20061;-66
2021/01/19 09:31:23;;;;;;;9.48;4.32;;;2.50;99.90;;;;;;5030860;28;20426;-66
2021/01/19 09:33:53;;;;;;;9.45;5.18;;;2.40;99.90;;;;;;5021176;28;20026;-69
2021/01/19 09:36:20;;;;;;;10.55;5.10;;;2.30;99.90;;;;;;5019761;28;20049;-67
2021/01/19 09:38:48;;;;;;;8.90;3.97;;;2.30;99.90;;;;;;5013721;28;20046;-68
2021/01/19 09:41:26;;;;;;;11.60;4.18;;;2.30;99.90;;;;;;5010722;28;20483;-67
2021/01/19 09:43:54;;;;;;;7.25;3.78;;;2.20;99.90;;;;;;5010648;28;20026;-68
2021/01/19 09:46:27;;;;;;;7.32;3.65;;;2.20;99.90;;;;;;5009519;28;20321;-71
2021/01/19 09:48:57;;;;;;;7.57;3.58;;;2.20;99.90;;;;;;5010327;28;20029;-70
2021/01/19 09:51:28;;;;;;;11.27;4.97;;;2.20;99.90;;;;;;5009718;28;20427;-60
2021/01/19 09:53:58;;;;;;;13.77;5.22;;;4.00;99.90;;;;;;5011375;28;20472;-67
2021/01/19 09:56:24;;;;;;;10.20;4.25;;;3.10;99.90;;;;;;5009413;28;20026;-67
2021/01/19 09:59:02;;;;;;;9.75;4.20;;;2.60;99.90;;;;;;5010016;28;20030;-67
2021/01/19 10:01:27;;;;;;;10.88;3.20;;;2.40;99.90;;;;;;5013762;28;20057;-69
2021/01/19 10:03:53;;;;;;;15.13;3.63;;;2.40;99.90;;;;;;5025581;28;20064;-71
2021/01/19 10:06:25;;;;;;;7.53;3.40;;;2.30;99.90;;;;;;5029823;28;20025;-69
2021/01/19 10:08:52;;;;;;;4.70;2.95;;;2.40;99.90;;;;;;5029376;28;20029;-69
2021/01/19 10:11:32;;;;;;;8.48;3.40;;;2.50;99.90;;;;;;5028517;28;20076;-69
2021/01/19 10:14:18;;;;;;;7.15;3.33;;;2.50;99.90;;;;;;5030715;28;20423;-68
2021/01/19 10:16:53;;;;;;;6.43;3.28;;;2.60;99.90;;;;;;5029210;28;20424;-69
2021/01/19 10:19:24;;;;;;;6.25;3.58;;;2.60;99.90;;;;;;5027911;28;20025;-68
2021/01/19 10:21:58;;;;;;;7.88;3.70;;;2.60;99.90;;;;;;5027721;28;20053;-68
2021/01/19 10:24:25;;;;;;;9.10;3.80;;;2.70;99.90;;;;;;5027878;28;20055;-69
2021/01/19 10:27:10;;;;;;;9.48;3.30;;;2.80;99.90;;;;;;5030813;28;20128;-69
2021/01/19 10:29:42;;;;;;;7.70;3.22;;;2.90;99.90;;;;;;5025347;28;20021;-70
2021/01/19 10:32:13;;;;;;;11.38;3.30;;;2.90;99.90;;;;;;5024796;28;20119;-68
2021/01/19 10:34:52;;;;;;;6.43;3.28;;;2.90;99.90;;;;;;5028297;28;20044;-70
2021/01/19 10:37:19;;;;;;;9.50;2.80;;;2.90;99.90;;;;;;5029949;28;20111;-70
2021/01/19 10:39:59;;;;;;;11.98;4.65;;;2.90;99.90;;;;;;5028756;28;20037;-67
2021/01/19 10:42:30;;;;;;;5.28;3.17;;;2.80;99.90;;;;;;5028464;28;20032;-68
2021/01/19 10:45:04;;;;;;;7.20;3.33;;;2.80;99.90;;;;;;5032761;28;20596;-69
2021/01/19 10:47:39;;;;;;;6.68;4.32;;;2.80;99.90;;;;;;5032620;28;20080;-68
2021/01/19 10:50:13;;;;;;;11.32;3.35;;;2.80;99.90;;;;;;5031797;28;20060;-68
2021/01/19 10:52:50;;;;;;;9.60;4.80;;;2.70;99.90;;;;;;5032756;28;20021;-68
2021/01/19 10:55:16;;;;;;;13.48;3.45;;;2.60;99.90;;;;;;5034058;28;20021;-69
2021/01/19 10:57:43;;;;;;;14.63;4.72;;;2.50;99.90;;;;;;5033995;28;20479;-69
2021/01/19 11:00:09;;;;;;;6.53;4.05;;;2.40;99.90;;;;;;5034058;28;20025;-68
2021/01/19 11:02:35;;;;;;;6.60;4.03;;;2.40;99.90;;;;;;5028310;28;20395;-67
2021/01/19 11:05:01;;;;;;;12.27;4.53;;;2.50;99.90;;;;;;5034071;28;20398;-69
2021/01/19 11:07:26;;;;;;;16.42;5.10;;;2.50;99.90;;;;;;5032115;28;20045;-68
2021/01/19 11:09:53;;;;;;;10.75;4.53;;;2.40;99.90;;;;;;5034214;28;20347;-68
2021/01/19 11:12:19;;;;;;;8.77;3.90;;;2.30;99.90;;;;;;5031928;28;20061;-68
2021/01/19 11:14:45;;;;;;;10.13;4.50;;;2.30;99.90;;;;;;5032784;28;20505;-69
2021/01/19 11:17:11;;;;;;;12.30;4.40;;;2.20;99.90;;;;;;5032595;28;20029;-67
2021/01/19 11:19:36;;;;;;;11.57;3.78;;;2.30;99.90;;;;;;5032655;28;20107;-67
2021/01/19 11:22:02;;;;;;;11.48;4.53;;;2.20;99.90;;;;;;5032209;28;20394;-67
2021/01/19 11:24:28;;;;;;;10.18;4.82;;;2.30;99.90;;;;;;5031275;28;20025;-68
2021/01/19 11:26:54;;;;;;;7.20;4.15;;;2.30;99.90;;;;;;5033637;28;20157;-68
2021/01/19 11:29:20;;;;;;;9.65;3.72;;;2.30;99.90;;;;;;5031362;28;20125;-68
2021/01/19 11:31:46;;;;;;;8.85;3.83;;;2.30;99.90;;;;;;5029440;28;20061;-67
2021/01/19 11:34:14;;;;;;;10.70;4.80;;;2.40;99.90;;;;;;5031120;28;20402;-68
2021/01/19 11:36:40;;;;;;;9.20;4.25;;;2.40;99.90;;;;;;5032347;28;20432;-68
2021/01/19 11:39:10;;;;;;;11.68;3.65;;;2.50;99.90;;;;;;5034111;28;20103;-69
2021/01/19 11:41:38;;;;;;;8.48;3.35;;;2.50;99.90;;;;;;5032130;28;20029;-68
2021/01/19 11:44:05;;;;;;;11.20;3.95;;;2.60;99.90;;;;;;5031695;28;20048;-71
2021/01/19 11:46:32;;;;;;;10.52;4.63;;;2.70;99.90;;;;;;5030997;28;20431;-69
2021/01/19 11:49:00;;;;;;;13.23;4.07;;;2.70;99.90;;;;;;5031875;28;20025;-67
2021/01/19 11:51:28;;;;;;;10.07;4.72;;;2.70;99.90;;;;;;5029658;28;20022;-68
2021/01/19 11:53:56;;;;;;;10.20;4.18;;;2.80;99.90;;;;;;5031704;28;20113;-69
2021/01/19 11:56:38;;;;;;;10.70;3.97;;;2.90;99.90;;;;;;5030894;28;20458;-69
2021/01/19 11:59:05;;;;;;;9.57;4.13;;;2.90;99.90;;;;;;5032369;28;20124;-68
2021/01/19 12:01:31;;;;;;;10.27;3.78;;;3.00;99.90;;;;;;5030307;28;20095;-68
2021/01/19 12:03:57;;;;;;;8.52;3.70;;;3.00;99.90;;;;;;5031340;28;20102;-69
2021/01/19 12:06:23;;;;;;;7.32;3.45;;;3.10;99.90;;;;;;5030365;28;20041;-69
2021/01/19 12:08:50;;;;;;;12.40;4.10;;;3.10;99.90;;;;;;5033660;28;20029;-68
2021/01/19 12:11:17;;;;;;;10.43;4.10;;;3.20;99.90;;;;;;5032837;28;20026;-68
2021/01/19 12:13:44;;;;;;;9.45;3.83;;;3.20;99.90;;;;;;5030450;28;20251;-68
2021/01/19 12:16:11;;;;;;;13.38;4.40;;;3.20;99.90;;;;;;5031243;28;20033;-68
2021/01/19 12:18:38;;;;;;;13.88;4.68;;;3.20;99.90;;;;;;5029356;28;20395;-68
2021/01/19 12:21:08;;;;;;;10.05;3.97;;;3.30;99.90;;;;;;5012364;28;20041;-67
2021/01/19 12:23:34;;;;;;;19.83;5.80;;;3.30;99.90;;;;;;5011873;28;20034;-67
2021/01/19 12:26:00;;;;;;;12.13;4.57;;;3.30;99.90;;;;;;5011329;28;20072;-67
2021/01/19 12:28:25;;;;;;;7.93;3.65;;;3.30;99.90;;;;;;5010299;28;20057;-67
2021/01/19 12:30:53;;;;;;;6.30;3.08;;;3.40;99.90;;;;;;5011220;28;20076;-68
2021/01/19 12:33:20;;;;;;;7.55;4.32;;;3.50;99.90;;;;;;5028675;28;20051;-67
2021/01/19 12:35:45;;;;;;;8.77;3.53;;;3.50;99.90;;;;;;5031523;28;20029;-67
2021/01/19 12:38:11;;;;;;;6.18;3.72;;;3.50;99.90;;;;;;5031620;28;20443;-68
2021/01/19 12:40:37;;;;;;;6.57;3.35;;;3.60;99.90;;;;;;5029658;28;20471;-67
2021/01/19 12:43:03;;;;;;;9.05;4.07;;;3.60;99.90;;;;;;5031213;28;20482;-69
2021/01/19 12:45:29;;;;;;;8.70;3.47;;;3.60;99.90;;;;;;5031515;28;20033;-68
2021/01/19 12:47:54;;;;;;;8.77;3.30;;;3.70;99.90;;;;;;5029892;28;20065;-66
2021/01/19 12:50:20;;;;;;;9.43;3.97;;;3.70;99.90;;;;;;5031496;28;20025;-66
2021/01/19 12:52:46;;;;;;;11.38;3.53;;;3.70;99.90;;;;;;5028905;28;20095;-67
2021/01/19 12:55:12;;;;;;;9.05;4.50;;;3.80;99.90;;;;;;5030187;28;20041;-68
2021/01/19 12:57:38;;;;;;;9.65;3.95;;;3.80;99.90;;;;;;5030484;28;20039;-67
2021/01/19 13:00:06;;;;;;;10.13;4.65;;;3.90;99.90;;;;;;5031236;28;20120;-67
2021/01/19 13:02:32;;;;;;;5.78;3.67;;;3.90;99.90;;;;;;5025443;28;20029;-67
2021/01/19 13:05:01;;;;;;;5.95;3.53;;;3.90;99.90;;;;;;5031333;28;20116;-68
2021/01/19 13:07:27;;;;;;;8.48;3.78;;;3.90;99.90;;;;;;5029058;28;20041;-68